Time;durP1;ratioP1;P1;durP2;ratioP2;P2;SDS_P1;SDS_P2;PMS_P1;PMS_P2;Temp;Humidity;BMP_temperature;BMP_pressure;BME280_temperature;BME280_humidity;BME280_pressure;Samples;Min_cycle;Max_cycle;Signal;HPM_P1;HPM_P2
2022/07/24 00:01:40;;;;;;;2.80;1.40;;;12.30;99.90;;;;;;5053134;28;20199;-89
2022/07/24 00:04:06;;;;;;;1.40;1.07;;;12.30;99.90;;;;;;5052295;28;20231;-88
2022/07/24 00:06:32;;;;;;;1.93;0.60;;;12.20;99.90;;;;;;5052710;28;20171;-90
2022/07/24 00:08:57;;;;;;;1.80;0.60;;;12.20;99.90;;;;;;5053361;28;20499;-87
2022/07/24 00:11:23;;;;;;;3.27;1.07;;;12.10;99.90;;;;;;5052790;28;20627;-87
2022/07/24 00:13:48;;;;;;;1.60;0.60;;;12.10;99.90;;;;;;5053417;28;20696;-87
2022/07/24 00:16:14;;;;;;;2.50;1.07;;;12.10;99.90;;;;;;5051653;28;20201;-88
2022/07/24 00:18:39;;;;;;;1.93;0.90;;;12.10;99.90;;;;;;5053562;28;20183;-87
2022/07/24 00:21:05;;;;;;;2.50;1.33;;;12.10;99.90;;;;;;5053414;28;20219;-93
2022/07/24 00:23:31;;;;;;;3.67;1.00;;;12.10;99.90;;;;;;5053462;28;20168;-88
2022/07/24 00:25:56;;;;;;;1.80;1.40;;;11.90;99.90;;;;;;5053086;28;20171;-87
2022/07/24 00:28:22;;;;;;;1.33;0.53;;;12.00;99.90;;;;;;5050891;28;20246;-86
2022/07/24 00:30:47;;;;;;;0.93;0.60;;;11.90;99.90;;;;;;5051453;28;20542;-85
2022/07/24 00:33:13;;;;;;;1.60;1.07;;;11.90;99.90;;;;;;5052945;28;20166;-86
2022/07/24 00:35:39;;;;;;;2.27;0.90;;;11.80;99.90;;;;;;5053453;28;20188;-86
2022/07/24 00:38:05;;;;;;;2.23;0.67;;;11.80;99.90;;;;;;5051736;28;20178;-86
2022/07/24 00:40:31;;;;;;;1.50;0.87;;;11.80;99.90;;;;;;5055177;28;20957;-90
2022/07/24 00:42:57;;;;;;;2.00;0.40;;;11.80;99.90;;;;;;5053436;28;20175;-92
2022/07/24 00:45:24;;;;;;;3.17;1.00;;;11.80;99.90;;;;;;5054340;28;20818;-92
2022/07/24 00:47:50;;;;;;;2.03;0.83;;;11.70;99.90;;;;;;5054491;28;20421;-94
2022/07/24 00:50:15;;;;;;;1.60;0.80;;;11.70;99.90;;;;;;5053359;28;20428;-94
2022/07/24 00:52:43;;;;;;;1.83;0.90;;;11.80;99.90;;;;;;5053723;28;20524;-92
2022/07/24 00:55:10;;;;;;;1.53;0.70;;;11.90;99.90;;;;;;5055052;28;20200;-92
2022/07/24 00:57:36;;;;;;;2.77;1.30;;;11.80;99.90;;;;;;5054979;28;20404;-95
2022/07/24 01:00:02;;;;;;;2.10;1.00;;;11.70;99.90;;;;;;5054423;28;20909;-94
2022/07/24 01:02:28;;;;;;;1.80;0.70;;;11.70;99.90;;;;;;5053894;28;20521;-95
2022/07/24 01:04:53;;;;;;;1.53;0.43;;;11.60;99.90;;;;;;5053760;28;20500;-92
2022/07/24 01:07:19;;;;;;;1.90;1.30;;;11.60;99.90;;;;;;5053627;28;20257;-91
2022/07/24 01:09:45;;;;;;;1.27;0.70;;;11.60;99.90;;;;;;5053500;28;20576;-93
2022/07/24 01:12:11;;;;;;;3.00;1.43;;;11.60;99.90;;;;;;5052422;28;20683;-93
2022/07/24 01:14:38;;;;;;;4.10;1.23;;;11.50;99.90;;;;;;5053546;28;20780;-91
2022/07/24 01:17:04;;;;;;;1.23;0.57;;;11.40;99.90;;;;;;5053447;28;20532;-92
2022/07/24 01:19:29;;;;;;;2.00;1.10;;;11.50;99.90;;;;;;5053454;28;20904;-94
2022/07/24 01:21:55;;;;;;;1.33;0.77;;;11.40;99.90;;;;;;5053627;28;20662;-93
2022/07/24 01:24:21;;;;;;;1.63;0.97;;;11.40;99.90;;;;;;5052497;28;20215;-89
2022/07/24 01:26:47;;;;;;;2.53;1.40;;;11.40;99.90;;;;;;5053835;28;20171;-92
2022/07/24 01:29:14;;;;;;;2.17;0.70;;;11.50;99.90;;;;;;5053352;28;20631;-89
2022/07/24 01:31:40;;;;;;;2.53;1.40;;;11.50;99.90;;;;;;5053055;28;20444;-94
2022/07/24 01:34:06;;;;;;;2.07;1.33;;;11.50;99.90;;;;;;5053236;28;20762;-91
2022/07/24 01:36:32;;;;;;;3.07;0.90;;;11.40;99.90;;;;;;5052408;28;20422;-92
2022/07/24 01:38:58;;;;;;;2.50;1.20;;;11.40;99.90;;;;;;5054081;28;20427;-93
2022/07/24 01:41:23;;;;;;;3.20;1.90;;;11.40;99.90;;;;;;5056618;28;20288;-91
2022/07/24 01:43:49;;;;;;;1.57;0.73;;;11.40;99.90;;;;;;5058413;28;20176;-90
2022/07/24 01:46:14;;;;;;;2.03;0.97;;;11.30;99.90;;;;;;5059085;28;20569;-91
2022/07/24 01:48:44;;;;;;;3.10;0.67;;;11.30;99.90;;;;;;5059203;28;20170;-89
2022/07/24 01:51:10;;;;;;;2.10;1.40;;;11.30;99.90;;;;;;5059373;28;20176;-93
2022/07/24 01:53:36;;;;;;;3.10;0.73;;;11.40;99.90;;;;;;5057569;28;20411;-92
2022/07/24 01:56:02;;;;;;;2.73;1.70;;;11.40;99.90;;;;;;5057375;28;20913;-88
2022/07/24 01:58:28;;;;;;;2.07;0.90;;;11.40;99.90;;;;;;5057211;28;20159;-92
2022/07/24 02:00:53;;;;;;;1.63;0.93;;;11.30;99.90;;;;;;5056506;28;20455;-92
2022/07/24 02:03:19;;;;;;;2.33;1.00;;;11.20;99.90;;;;;;5057390;28;20182;-93
2022/07/24 02:05:45;;;;;;;2.50;2.13;;;11.20;99.90;;;;;;5056954;28;20181;-91
2022/07/24 02:08:11;;;;;;;2.20;1.67;;;11.20;99.90;;;;;;5056208;28;20497;-92
2022/07/24 02:10:36;;;;;;;4.57;0.97;;;11.20;99.90;;;;;;5055767;28;20475;-92
2022/07/24 02:13:02;;;;;;;1.70;1.10;;;11.20;99.90;;;;;;5056606;28;20742;-93
2022/07/24 02:15:27;;;;;;;2.20;1.07;;;11.20;99.90;;;;;;5056801;28;20230;-94
2022/07/24 02:17:57;;;;;;;1.50;0.70;;;11.10;99.90;;;;;;5055821;28;20634;-93
2022/07/24 02:20:23;;;;;;;2.13;1.00;;;11.10;99.90;;;;;;5057623;28;20203;-92
2022/07/24 02:22:49;;;;;;;1.40;0.90;;;11.10;99.90;;;;;;5057741;28;20425;-93
2022/07/24 02:25:14;;;;;;;2.70;1.30;;;11.10;99.90;;;;;;5057049;28;20177;-93
2022/07/24 02:27:40;;;;;;;2.30;1.27;;;11.00;99.90;;;;;;5056035;28;20409;-90
2022/07/24 02:30:09;;;;;;;2.83;2.10;;;11.00;99.90;;;;;;5057404;28;20186;-89
2022/07/24 02:32:35;;;;;;;2.77;0.90;;;11.00;99.90;;;;;;5054277;28;20172;-90
2022/07/24 02:35:01;;;;;;;2.50;1.20;;;11.20;99.90;;;;;;5055453;28;20824;-92
2022/07/24 02:37:26;;;;;;;3.33;1.57;;;11.10;99.90;;;;;;5054592;28;20261;-89
2022/07/24 02:39:52;;;;;;;3.27;1.50;;;11.00;99.90;;;;;;5055281;28;20174;-88
2022/07/24 02:42:17;;;;;;;3.83;1.67;;;11.00;99.90;;;;;;5053902;28;20271;-87
2022/07/24 02:44:43;;;;;;;2.20;1.43;;;11.00;99.90;;;;;;5053973;28;20201;-87
2022/07/24 02:47:08;;;;;;;2.90;1.33;;;11.00;99.90;;;;;;5054965;28;20174;-88
2022/07/24 02:49:35;;;;;;;1.77;1.17;;;11.10;99.90;;;;;;5053681;28;20212;-87
2022/07/24 02:52:01;;;;;;;2.43;1.40;;;11.00;99.90;;;;;;5054217;28;20204;-87
2022/07/24 02:54:27;;;;;;;2.37;1.30;;;11.00;99.90;;;;;;5054971;28;20423;-91
2022/07/24 02:56:52;;;;;;;2.30;1.50;;;11.00;99.90;;;;;;5053517;28;20512;-88
2022/07/24 02:59:18;;;;;;;2.43;1.13;;;11.00;99.90;;;;;;5053746;28;20209;-87
2022/07/24 03:01:43;;;;;;;3.90;1.40;;;11.00;99.90;;;;;;5054563;28;20548;-91
2022/07/24 03:04:09;;;;;;;1.60;0.97;;;10.90;99.90;;;;;;5054991;28;20177;-87
2022/07/24 03:06:34;;;;;;;2.17;1.47;;;10.90;99.90;;;;;;5053512;28;20178;-88
2022/07/24 03:09:01;;;;;;;2.60;1.37;;;10.90;99.90;;;;;;5053378;28;20623;-87
2022/07/24 03:11:26;;;;;;;4.30;2.90;;;11.00;99.90;;;;;;5054743;28;20166;-90
2022/07/24 03:13:52;;;;;;;2.13;1.63;;;11.10;99.90;;;;;;5054424;28;20465;-89
2022/07/24 03:16:18;;;;;;;2.47;1.70;;;11.20;99.90;;;;;;5054143;28;20655;-87
2022/07/24 03:18:48;;;;;;;3.20;1.20;;;11.20;99.90;;;;;;5054783;28;20166;-86
2022/07/24 03:21:14;;;;;;;3.33;1.53;;;11.30;99.90;;;;;;5055671;28;20830;-86
2022/07/24 03:23:40;;;;;;;3.13;1.30;;;11.20;99.90;;;;;;5055779;28;20408;-85
2022/07/24 03:26:06;;;;;;;3.57;2.17;;;11.20;99.90;;;;;;5054509;28;20578;-85
2022/07/24 03:28:31;;;;;;;2.27;1.30;;;11.30;99.90;;;;;;5055676;28;20236;-88
2022/07/24 03:30:57;;;;;;;4.30;1.90;;;11.30;99.90;;;;;;5055143;28;20564;-88
2022/07/24 03:33:22;;;;;;;5.33;2.37;;;11.30;99.90;;;;;;5055251;28;20182;-87
2022/07/24 03:35:48;;;;;;;4.47;1.20;;;11.30;99.90;;;;;;5054122;28;20204;-85
2022/07/24 03:38:13;;;;;;;4.63;1.83;;;11.30;99.90;;;;;;5054010;28;20320;-89
2022/07/24 03:40:39;;;;;;;3.50;1.37;;;11.30;99.90;;;;;;5053986;28;20173;-87
2022/07/24 03:43:04;;;;;;;4.23;2.27;;;11.30;99.90;;;;;;5053897;28;20178;-84
2022/07/24 03:45:30;;;;;;;4.13;2.33;;;11.30;99.90;;;;;;5053392;28;20245;-82
2022/07/24 03:47:55;;;;;;;3.53;1.83;;;11.30;99.90;;;;;;5054001;28;20694;-86
2022/07/24 03:50:21;;;;;;;2.80;1.80;;;11.40;99.90;;;;;;5053775;28;20193;-83
2022/07/24 03:52:46;;;;;;;2.73;1.27;;;11.30;99.90;;;;;;5053820;28;20261;-83
2022/07/24 03:55:12;;;;;;;3.13;1.43;;;11.30;99.90;;;;;;5053786;28;20263;-86
2022/07/24 03:57:37;;;;;;;3.70;2.33;;;11.30;99.90;;;;;;5053868;28;20170;-89
2022/07/24 04:00:05;;;;;;;4.33;2.30;;;11.30;99.90;;;;;;5053732;28;20169;-85
2022/07/24 04:02:30;;;;;;;3.70;1.87;;;11.30;99.90;;;;;;5053829;28;20600;-85
2022/07/24 04:04:56;;;;;;;2.70;1.20;;;11.30;99.90;;;;;;5053492;28;20499;-86
2022/07/24 04:07:22;;;;;;;4.60;1.37;;;11.20;99.90;;;;;;5053588;28;20186;-89
2022/07/24 04:09:47;;;;;;;2.50;1.37;;;11.20;99.90;;;;;;5053755;28;20513;-86
2022/07/24 04:12:12;;;;;;;2.13;1.40;;;11.20;99.90;;;;;;5053660;28;20209;-83
2022/07/24 04:14:38;;;;;;;3.13;1.33;;;11.20;99.90;;;;;;5053537;28;20173;-83
2022/07/24 04:17:03;;;;;;;2.37;0.80;;;11.30;99.90;;;;;;5053130;28;20176;-83
2022/07/24 04:19:29;;;;;;;2.77;1.50;;;11.40;99.90;;;;;;5053363;28;20163;-85
2022/07/24 04:21:55;;;;;;;3.37;1.57;;;11.40;99.90;;;;;;5053296;28;20181;-87
2022/07/24 04:24:20;;;;;;;2.87;1.30;;;11.40;99.90;;;;;;5052279;28;20227;-86
2022/07/24 04:26:46;;;;;;;2.07;1.00;;;11.40;99.90;;;;;;5051980;28;20423;-88
2022/07/24 04:29:12;;;;;;;2.40;1.23;;;11.40;99.90;;;;;;5052251;28;20305;-89
2022/07/24 04:31:38;;;;;;;3.07;1.67;;;11.50;99.90;;;;;;5053349;28;20233;-87
2022/07/24 04:34:04;;;;;;;2.63;1.30;;;11.50;99.90;;;;;;5053520;28;20794;-87
2022/07/24 04:36:29;;;;;;;1.50;1.00;;;11.50;99.90;;;;;;5053127;28;20184;-86
2022/07/24 04:38:55;;;;;;;2.67;1.47;;;11.50;99.90;;;;;;5053260;28;20231;-85
2022/07/24 04:41:21;;;;;;;3.20;1.70;;;11.60;99.90;;;;;;5052540;28;20207;-87
2022/07/24 04:43:46;;;;;;;2.70;1.20;;;11.60;99.90;;;;;;5053752;28;20277;-86
2022/07/24 04:46:12;;;;;;;2.83;1.20;;;11.60;99.90;;;;;;5053822;28;20185;-87
2022/07/24 04:48:37;;;;;;;6.33;1.87;;;11.70;99.90;;;;;;5052284;28;20178;-86
2022/07/24 04:51:03;;;;;;;4.30;2.30;;;11.80;99.90;;;;;;5053229;28;20577;-87
2022/07/24 04:53:30;;;;;;;2.90;1.70;;;11.80;99.90;;;;;;5051905;28;20171;-87
2022/07/24 04:55:56;;;;;;;4.30;1.67;;;11.90;99.90;;;;;;5051911;28;20232;-89
2022/07/24 04:58:22;;;;;;;2.50;0.97;;;12.00;99.90;;;;;;5053856;28;20413;-86
2022/07/24 05:00:47;;;;;;;4.03;1.77;;;12.10;99.90;;;;;;5052348;28;20898;-94
2022/07/24 05:03:13;;;;;;;2.10;1.07;;;12.10;99.90;;;;;;5053819;28;20182;-88
2022/07/24 05:05:38;;;;;;;1.80;1.13;;;12.20;99.90;;;;;;5052639;28;20178;-91
2022/07/24 05:08:04;;;;;;;3.33;1.30;;;12.30;99.90;;;;;;5054166;28;20173;-89
2022/07/24 05:10:30;;;;;;;2.90;1.17;;;12.40;99.90;;;;;;5052901;28;20220;-92
2022/07/24 05:12:55;;;;;;;2.27;1.00;;;12.40;99.90;;;;;;5053360;28;20265;-88
2022/07/24 05:15:21;;;;;;;2.83;1.30;;;12.50;99.90;;;;;;5055595;28;20463;-94
2022/07/24 05:17:47;;;;;;;2.40;1.07;;;12.50;99.90;;;;;;5056372;28;20205;-88
2022/07/24 05:20:13;;;;;;;2.80;1.10;;;12.60;99.90;;;;;;5058046;28;20177;-90
2022/07/24 05:22:39;;;;;;;1.67;1.07;;;12.70;99.90;;;;;;5059212;28;20498;-87
2022/07/24 05:25:05;;;;;;;3.33;1.30;;;12.70;99.90;;;;;;5057508;28;20429;-88
2022/07/24 05:27:31;;;;;;;3.37;2.03;;;12.80;99.90;;;;;;5056583;28;20164;-88
2022/07/24 05:29:56;;;;;;;2.30;1.43;;;12.90;99.90;;;;;;5055457;28;20494;-90
2022/07/24 05:32:22;;;;;;;2.27;1.43;;;13.00;99.90;;;;;;5055720;28;20179;-85
2022/07/24 05:34:47;;;;;;;3.23;1.40;;;13.20;99.90;;;;;;5056904;28;20186;-87
2022/07/24 05:37:13;;;;;;;2.90;1.37;;;13.40;99.90;;;;;;5056918;28;20259;-88
2022/07/24 05:39:38;;;;;;;3.30;1.70;;;13.60;99.90;;;;;;5057426;28;20237;-88
2022/07/24 05:42:04;;;;;;;3.00;1.40;;;13.80;99.90;;;;;;5055784;28;20175;-92
2022/07/24 05:44:33;;;;;;;3.07;2.70;;;14.00;99.90;;;;;;5056949;28;20177;-89
2022/07/24 05:46:58;;;;;;;3.50;1.67;;;14.20;99.90;;;;;;5056694;28;20853;-91
2022/07/24 05:49:24;;;;;;;3.40;1.30;;;14.50;99.90;;;;;;5055338;28;20438;-89
2022/07/24 05:51:49;;;;;;;3.40;1.83;;;14.70;99.90;;;;;;5056578;28;20215;-91
2022/07/24 05:54:15;;;;;;;1.77;0.93;;;14.70;99.90;;;;;;5056783;28;20174;-88
2022/07/24 05:56:41;;;;;;;2.47;1.30;;;14.90;99.90;;;;;;5055425;28;20645;-89
2022/07/24 05:59:07;;;;;;;2.63;1.30;;;15.30;99.90;;;;;;5056352;28;20534;-90
2022/07/24 06:01:32;;;;;;;2.30;1.50;;;15.70;99.90;;;;;;5054674;28;20408;-91
2022/07/24 06:03:58;;;;;;;2.20;0.87;;;16.00;99.90;;;;;;5055090;28;20514;-89
2022/07/24 06:06:24;;;;;;;1.70;1.13;;;16.30;99.90;;;;;;5054951;28;20174;-90
2022/07/24 06:08:49;;;;;;;1.77;1.10;;;16.20;99.90;;;;;;5056184;28;20409;-93
2022/07/24 06:11:17;;;;;;;1.87;1.57;;;16.40;99.90;;;;;;5056131;28;20209;-88
2022/07/24 06:13:43;;;;;;;3.80;1.33;;;16.50;60.40;;;;;;5056218;28;20280;-88
2022/07/24 06:16:08;;;;;;;3.60;1.37;;;16.70;25.40;;;;;;5055589;28;20437;-89
2022/07/24 06:18:34;;;;;;;1.50;0.50;;;16.80;5.30;;;;;;5055857;28;20651;-85
2022/07/24 06:20:59;;;;;;;1.27;1.17;;;17.10;23.10;;;;;;5055837;28;20199;-90
2022/07/24 06:23:24;;;;;;;1.67;0.43;;;17.40;1.00;;;;;;5056180;28;20256;-90
2022/07/24 06:25:50;;;;;;;1.30;0.50;;;17.30;1.00;;;;;;5053964;28;20191;-94
2022/07/24 06:28:15;;;;;;;1.13;0.70;;;17.30;1.00;;;;;;5054192;28;20227;-90
2022/07/24 06:30:41;;;;;;;1.10;0.70;;;17.30;1.00;;;;;;5054537;28;20241;-91
2022/07/24 06:33:06;;;;;;;2.13;1.00;;;17.80;1.00;;;;;;5054264;28;20668;-93
2022/07/24 06:35:32;;;;;;;0.90;0.53;;;18.10;1.00;;;;;;5056660;28;20224;-95
2022/07/24 06:38:00;;;;;;;1.60;0.90;;;18.70;99.90;;;;;;5055961;28;20180;-82
2022/07/24 06:40:26;;;;;;;1.00;0.40;;;18.70;99.90;;;;;;5054923;28;20211;-79
2022/07/24 06:42:51;;;;;;;0.90;0.50;;;19.30;99.90;;;;;;5053505;28;20441;-82
2022/07/24 06:45:17;;;;;;;1.03;0.63;;;20.40;1.00;;;;;;5052144;28;20413;-82
2022/07/24 06:47:42;;;;;;;0.80;0.40;;;21.10;3.40;;;;;;5053871;28;20172;-87
2022/07/24 06:50:09;;;;;;;1.57;0.90;;;21.30;99.90;;;;;;5058560;28;20179;-92
2022/07/24 06:52:34;;;;;;;1.10;0.60;;;21.20;1.00;;;;;;5062042;28;20555;-91
2022/07/24 06:55:02;;;;;;;1.20;0.30;;;21.60;1.00;;;;;;5093215;28;20495;-93
2022/07/24 06:57:28;;;;;;;1.20;0.50;;;22.20;99.90;;;;;;5063920;28;20185;-94
2022/07/24 06:59:54;;;;;;;0.60;0.30;;;23.20;99.90;;;;;;5062204;28;20455;-96
2022/07/24 07:02:21;;;;;;;1.00;0.43;;;23.80;99.90;;;;;;5060231;28;20417;-89
2022/07/24 07:04:47;;;;;;;0.50;0.43;;;24.00;99.90;;;;;;5059240;28;20175;-88
2022/07/24 07:07:14;;;;;;;0.83;0.83;;;24.50;99.90;;;;;;5063127;28;20927;-89
2022/07/24 07:09:41;;;;;;;0.90;0.50;;;23.80;99.90;;;;;;5057852;28;20222;-91
2022/07/24 07:12:07;;;;;;;2.60;0.50;;;23.50;99.90;;;;;;5058717;28;20485;-87
2022/07/24 07:14:32;;;;;;;0.80;0.50;;;24.20;99.90;;;;;;5055799;28;20441;-86
2022/07/24 07:16:57;;;;;;;0.77;0.40;;;24.00;99.90;;;;;;5063692;28;20659;-90
2022/07/24 07:19:23;;;;;;;0.40;0.20;;;24.20;99.90;;;;;;5054789;28;20181;-92
2022/07/24 07:21:49;;;;;;;0.93;0.37;;;25.10;96.70;;;;;;5055658;28;20260;-89
2022/07/24 07:24:14;;;;;;;3.07;0.53;;;25.10;71.90;;;;;;5096369;28;20175;-87
2022/07/24 07:26:40;;;;;;;0.63;0.20;;;25.40;73.30;;;;;;5055816;28;20197;-87
2022/07/24 07:29:05;;;;;;;0.67;0.60;;;25.50;50.90;;;;;;5052973;28;20248;-85
2022/07/24 07:31:31;;;;;;;0.60;0.30;;;25.30;58.80;;;;;;5053598;28;20225;-85
2022/07/24 07:33:57;;;;;;;0.80;0.30;;;26.20;47.60;;;;;;5054426;28;20247;-88
2022/07/24 07:36:23;;;;;;;0.83;0.30;;;26.70;30.30;;;;;;5054307;28;20256;-87
2022/07/24 07:38:49;;;;;;;0.80;0.30;;;26.40;22.00;;;;;;5052786;28;21047;-86
2022/07/24 07:41:14;;;;;;;2.10;0.30;;;26.40;29.40;;;;;;5054165;28;20174;-85
2022/07/24 07:43:40;;;;;;;0.60;0.20;;;26.60;20.70;;;;;;5054152;28;20527;-86
2022/07/24 07:46:06;;;;;;;1.20;0.30;;;26.30;24.40;;;;;;5053703;28;20202;-87
2022/07/24 07:48:32;;;;;;;0.70;0.40;;;26.60;21.20;;;;;;5054031;28;20436;-86
2022/07/24 07:50:58;;;;;;;0.73;0.53;;;25.80;15.50;;;;;;5053967;28;20673;-90
2022/07/24 07:53:23;;;;;;;1.63;0.50;;;26.50;18.30;;;;;;5054207;28;20179;-89
2022/07/24 07:55:51;;;;;;;2.30;0.20;;;27.00;16.50;;;;;;5054100;28;20457;-86
2022/07/24 07:58:17;;;;;;;0.87;0.40;;;26.60;11.30;;;;;;5086197;28;20173;-85
2022/07/24 08:00:43;;;;;;;1.27;0.40;;;27.40;14.40;;;;;;5053579;28;20495;-90
2022/07/24 08:03:08;;;;;;;1.10;0.30;;;27.50;6.70;;;;;;5055037;28;20451;-90
2022/07/24 08:05:34;;;;;;;0.83;0.33;;;27.40;6.00;;;;;;5054200;28;20510;-90
2022/07/24 08:08:00;;;;;;;1.50;0.30;;;26.80;3.10;;;;;;5054008;28;20196;-90
2022/07/24 08:10:25;;;;;;;0.63;0.20;;;27.00;4.90;;;;;;5052686;28;20510;-85
2022/07/24 08:12:51;;;;;;;1.13;0.23;;;27.50;2.20;;;;;;5054417;28;20223;-92
2022/07/24 08:15:17;;;;;;;0.60;0.20;;;28.30;9.40;;;;;;5052619;28;20184;-90
2022/07/24 08:17:42;;;;;;;0.90;0.30;;;28.10;1.00;;;;;;5051213;28;20645;-87
2022/07/24 08:20:08;;;;;;;1.00;0.40;;;28.40;1.00;;;;;;5052791;28;20181;-86
2022/07/24 08:22:34;;;;;;;1.43;0.50;;;28.80;1.00;;;;;;5053555;28;20647;-86
2022/07/24 08:24:59;;;;;;;0.97;0.30;;;29.50;1.00;;;;;;5052386;28;20419;-85
2022/07/24 08:27:25;;;;;;;0.70;0.30;;;28.10;1.00;;;;;;5052098;28;20173;-89
2022/07/24 08:29:50;;;;;;;0.70;0.40;;;28.30;1.00;;;;;;5068438;28;20178;-86
2022/07/24 08:32:16;;;;;;;0.67;0.30;;;28.40;1.00;;;;;;5052135;28;20239;-85
2022/07/24 08:34:41;;;;;;;0.70;0.40;;;28.70;1.00;;;;;;5053343;28;20172;-83
2022/07/24 08:37:07;;;;;;;0.70;0.30;;;28.90;1.00;;;;;;5053335;28;20185;-85
2022/07/24 08:39:32;;;;;;;0.70;0.40;;;29.40;1.00;;;;;;5053318;28;20543;-87
2022/07/24 08:41:58;;;;;;;0.70;0.40;;;29.10;1.00;;;;;;5053310;28;20204;-87
2022/07/24 08:44:23;;;;;;;0.87;0.40;;;28.80;1.00;;;;;;5053011;28;20225;-90
2022/07/24 08:46:52;;;;;;;0.77;0.30;;;29.40;1.00;;;;;;5053412;28;20244;-88
2022/07/24 08:49:21;;;;;;;1.03;0.50;;;28.90;1.00;;;;;;5051304;28;20634;-85
2022/07/24 08:51:49;;;;;;;0.70;0.43;;;29.50;1.00;;;;;;5049771;28;20984;-91
2022/07/24 08:54:15;;;;;;;0.70;0.23;;;29.60;1.00;;;;;;5033786;28;20417;-92
2022/07/24 08:56:41;;;;;;;1.47;0.50;;;30.40;1.00;;;;;;5033581;28;20413;-94
2022/07/24 08:59:17;;;;;;;0.63;0.30;;;31.00;1.00;;;;;;5032836;28;20175;-89
2022/07/24 09:01:43;;;;;;;0.90;0.50;;;30.00;1.00;;;;;;5031690;28;20423;-91
2022/07/24 09:04:34;;;;;;;1.33;0.30;;;30.70;1.00;;;;;;5031536;28;20436;-86
2022/07/24 09:07:02;;;;;;;0.93;0.40;;;29.40;1.00;;;;;;5048553;28;20516;-85
2022/07/24 09:09:27;;;;;;;0.80;0.40;;;28.80;1.00;;;;;;5049171;28;20472;-88
2022/07/24 09:12:04;;;;;;;0.77;0.37;;;29.30;1.00;;;;;;5042411;28;20554;-89
2022/07/24 09:14:31;;;;;;;0.97;0.33;;;29.50;1.00;;;;;;5036892;28;20534;-87
2022/07/24 09:17:04;;;;;;;1.27;0.50;;;29.80;1.00;;;;;;5043310;28;20421;-87
2022/07/24 09:19:31;;;;;;;0.90;0.40;;;30.70;1.00;;;;;;5049275;28;20428;-92
2022/07/24 09:21:56;;;;;;;0.70;0.20;;;31.30;1.00;;;;;;5064158;28;20468;-90
2022/07/24 09:24:22;;;;;;;1.10;0.30;;;31.80;1.00;;;;;;5064214;28;20493;-94
2022/07/24 09:26:56;;;;;;;0.60;0.27;;;31.60;1.00;;;;;;5054752;28;20181;-87
2022/07/24 09:29:24;;;;;;;1.63;0.63;;;30.40;1.00;;;;;;5054189;28;20984;-87
2022/07/24 09:31:57;;;;;;;1.20;0.40;;;31.00;1.00;;;;;;5054174;28;20481;-94
2022/07/24 09:34:28;;;;;;;1.37;0.70;;;31.00;1.00;;;;;;5055806;28;20423;-91
2022/07/24 09:36:58;;;;;;;1.03;0.40;;;31.10;1.00;;;;;;5061594;28;20404;-88
2022/07/24 09:39:25;;;;;;;1.90;0.53;;;30.50;1.00;;;;;;5055346;28;20420;-86
2022/07/24 09:41:55;;;;;;;1.73;0.60;;;31.10;1.00;;;;;;5064970;28;20474;-85
2022/07/24 09:44:23;;;;;;;0.60;0.40;;;30.80;1.00;;;;;;5094362;28;20416;-93
2022/07/24 09:46:55;;;;;;;1.30;0.50;;;30.80;1.00;;;;;;5050981;28;20507;-85
2022/07/24 09:49:21;;;;;;;1.10;0.73;;;30.90;1.00;;;;;;5054118;28;20420;-87
2022/07/24 09:52:14;;;;;;;1.00;0.60;;;31.30;1.00;;;;;;5051780;28;20411;-86
2022/07/24 09:54:41;;;;;;;0.87;0.47;;;30.50;1.00;;;;;;5047552;28;20447;-86
2022/07/24 09:57:21;;;;;;;0.90;0.60;;;29.10;1.00;;;;;;5059525;28;20438;-94
2022/07/24 09:59:55;;;;;;;1.03;0.50;;;30.60;1.00;;;;;;5056835;28;20966;-94
2022/07/24 10:02:23;;;;;;;1.33;0.70;;;31.10;1.00;;;;;;5054430;28;20839;-88
2022/07/24 10:04:50;;;;;;;0.70;0.50;;;31.00;1.00;;;;;;5062450;28;20427;-86
2022/07/24 10:07:18;;;;;;;1.47;0.70;;;31.80;1.00;;;;;;5057307;28;20932;-91
2022/07/24 10:09:52;;;;;;;0.80;0.50;;;31.50;1.00;;;;;;5065914;28;20912;-90
2022/07/24 10:12:23;;;;;;;0.87;0.53;;;31.50;1.00;;;;;;5063743;28;21077;-89
2022/07/24 10:14:51;;;;;;;1.30;0.90;;;32.10;1.00;;;;;;5061971;28;20408;-84
2022/07/24 10:17:18;;;;;;;1.10;0.70;;;31.70;1.00;;;;;;5065433;28;20431;-88
2022/07/24 10:19:47;;;;;;;0.83;0.63;;;31.80;1.00;;;;;;5062618;28;20458;-85
2022/07/24 10:22:15;;;;;;;0.73;0.70;;;31.90;1.00;;;;;;5063117;28;20459;-87
2022/07/24 10:24:47;;;;;;;0.70;0.70;;;32.30;1.00;;;;;;5059083;28;20412;-95
2022/07/24 10:27:41;;;;;;;1.00;0.83;;;31.80;1.00;;;;;;5064689;28;20428;-86
2022/07/24 10:30:10;;;;;;;1.50;0.70;;;31.70;1.00;;;;;;5061598;28;20432;-86
2022/07/24 10:32:38;;;;;;;0.87;0.53;;;32.10;1.00;;;;;;5069001;28;20443;-89
2022/07/24 10:35:27;;;;;;;1.17;1.00;;;32.50;1.00;;;;;;5070438;28;20463;-85
2022/07/24 10:38:09;;;;;;;0.90;0.67;;;32.50;1.00;;;;;;5061277;28;20431;-86
2022/07/24 10:40:51;;;;;;;1.10;0.90;;;32.30;1.00;;;;;;5059520;28;20536;-94
2022/07/24 10:43:18;;;;;;;1.23;0.97;;;32.00;1.00;;;;;;5063503;28;20423;-86
2022/07/24 10:46:03;;;;;;;0.90;0.80;;;32.60;1.00;;;;;;5060921;28;20413;-90
2022/07/24 10:48:34;;;;;;;1.27;0.73;;;32.80;1.00;;;;;;5070024;28;20454;-89
2022/07/24 10:51:13;;;;;;;1.50;0.73;;;33.00;1.00;;;;;;5069812;28;20432;-91
2022/07/24 10:53:47;;;;;;;0.93;0.80;;;33.50;1.00;;;;;;5063123;28;20424;-92
2022/07/24 10:56:23;;;;;;;1.67;1.27;;;34.10;1.00;;;;;;5062675;28;20447;-90
2022/07/24 10:59:01;;;;;;;1.20;1.10;;;33.00;1.00;;;;;;5068129;28;20977;-91
2022/07/24 11:01:37;;;;;;;1.83;1.40;;;33.70;1.00;;;;;;5062951;28;20471;-87
2022/07/24 11:04:24;;;;;;;1.87;1.77;;;33.70;1.00;;;;;;5064234;28;20412;-94
2022/07/24 11:06:55;;;;;;;1.77;1.67;;;33.30;1.00;;;;;;5053111;28;20992;-87
2022/07/24 11:09:27;;;;;;;1.40;1.30;;;33.00;1.00;;;;;;5064932;28;20424;-89
2022/07/24 11:11:52;;;;;;;1.23;1.13;;;33.40;1.00;;;;;;5053950;28;20413;-87
2022/07/24 11:14:26;;;;;;;1.47;1.37;;;33.50;1.00;;;;;;5064791;28;20420;-94
2022/07/24 11:16:52;;;;;;;2.00;1.80;;;33.00;1.00;;;;;;5056010;28;20170;-86
2022/07/24 11:19:17;;;;;;;1.43;1.33;;;33.30;1.00;;;;;;5056065;28;20416;-85
2022/07/24 11:21:46;;;;;;;1.47;1.37;;;32.50;1.00;;;;;;5059060;28;20471;-89
2022/07/24 11:24:19;;;;;;;1.77;1.33;;;33.10;1.00;;;;;;5057410;28;20312;-87
2022/07/24 11:26:52;;;;;;;2.10;1.87;;;32.50;1.00;;;;;;5056308;28;20499;-87
2022/07/24 11:29:28;;;;;;;1.83;1.63;;;32.60;1.00;;;;;;5058081;28;20476;-85
2022/07/24 11:31:56;;;;;;;1.70;1.60;;;32.70;1.00;;;;;;5049646;28;20412;-89
2022/07/24 11:34:22;;;;;;;2.43;1.93;;;32.50;1.00;;;;;;5060121;28;20855;-86
2022/07/24 11:36:50;;;;;;;1.83;1.50;;;32.80;1.00;;;;;;5061471;28;20451;-94
2022/07/24 11:39:16;;;;;;;1.60;1.33;;;32.60;1.00;;;;;;5062968;28;20420;-94
2022/07/24 11:41:51;;;;;;;1.20;1.10;;;33.00;1.00;;;;;;5055056;28;20914;-91
2022/07/24 11:44:30;;;;;;;1.27;1.13;;;33.10;1.00;;;;;;5057260;28;20522;-90
2022/07/24 11:47:07;;;;;;;1.80;1.70;;;33.60;1.00;;;;;;5060087;28;20455;-89
2022/07/24 11:49:48;;;;;;;2.00;1.37;;;33.80;1.00;;;;;;5057696;28;20424;-88
2022/07/24 11:52:27;;;;;;;1.67;1.57;;;33.20;1.00;;;;;;5054503;28;20451;-93
2022/07/24 11:54:55;;;;;;;2.00;1.87;;;33.40;1.00;;;;;;5055165;28;20419;-88
2022/07/24 11:57:26;;;;;;;3.07;1.60;;;33.40;1.00;;;;;;5053903;28;20416;-89
2022/07/24 11:59:53;;;;;;;1.53;1.30;;;33.60;1.00;;;;;;5054766;28;20479;-86
2022/07/24 12:02:20;;;;;;;2.47;1.67;;;33.80;1.00;;;;;;5054009;28;20590;-91
2022/07/24 12:04:47;;;;;;;1.80;1.70;;;33.50;1.00;;;;;;5052810;28;20423;-88
2022/07/24 12:07:25;;;;;;;2.40;1.53;;;33.70;1.00;;;;;;5053570;28;20424;-82
2022/07/24 12:09:53;;;;;;;1.50;1.30;;;33.70;1.00;;;;;;5052619;28;20504;-82
2022/07/24 12:12:25;;;;;;;3.17;1.90;;;33.60;1.00;;;;;;5050106;28;20498;-82
2022/07/24 12:14:52;;;;;;;2.03;1.77;;;32.40;1.00;;;;;;5052376;28;20408;-82
2022/07/24 12:17:17;;;;;;;1.77;1.67;;;33.10;1.00;;;;;;5049845;28;20931;-82
2022/07/24 12:19:54;;;;;;;1.83;1.20;;;33.40;1.00;;;;;;5052601;28;20413;-82
2022/07/24 12:22:21;;;;;;;2.10;1.80;;;33.60;1.00;;;;;;5050147;28;20255;-82
2022/07/24 12:24:47;;;;;;;0.97;0.83;;;33.90;1.00;;;;;;5051759;28;20416;-82
2022/07/24 12:27:32;;;;;;;1.30;1.17;;;33.30;1.00;;;;;;5084784;28;20424;-82
2022/07/24 12:29:57;;;;;;;1.83;1.73;;;33.10;1.00;;;;;;5049568;28;20495;-82
2022/07/24 12:32:23;;;;;;;2.30;1.87;;;33.60;1.00;;;;;;5052387;28;20515;-81
2022/07/24 12:34:49;;;;;;;1.93;1.73;;;33.80;1.00;;;;;;5052694;28;20249;-81
2022/07/24 12:37:21;;;;;;;2.30;1.73;;;33.80;1.00;;;;;;5052482;28;20173;-81
2022/07/24 12:39:52;;;;;;;3.03;1.77;;;34.00;1.00;;;;;;5052783;28;20474;-82
2022/07/24 12:42:31;;;;;;;2.03;1.77;;;33.80;1.00;;;;;;5052373;28;20468;-81
2022/07/24 12:45:09;;;;;;;1.90;1.80;;;33.50;1.00;;;;;;5052410;28;20443;-81
2022/07/24 12:48:06;;;;;;;2.20;2.00;;;33.40;1.00;;;;;;5051345;28;20936;-80
2022/07/24 12:50:32;;;;;;;1.50;1.37;;;33.00;1.00;;;;;;5052533;28;20447;-82
2022/07/24 12:53:06;;;;;;;2.50;1.60;;;32.90;1.00;;;;;;5052541;28;20997;-81